sensor_id;sensor_type;location;lat;lon;timestamp;P1;durP1;ratioP1;P2;durP2;ratioP2
60054;SDS011;45930;53.514;55.904;2023-03-03T00:00:57;8.87;;;5.93;;
60054;SDS011;45930;53.514;55.904;2023-03-03T00:01:58;9.50;;;6.27;;
60054;SDS011;45930;53.514;55.904;2023-03-03T00:02:59;9.47;;;6.13;;
60054;SDS011;45930;53.514;55.904;2023-03-03T00:04:05;10.00;;;5.95;;
60054;SDS011;45930;53.514;55.904;2023-03-03T00:05:06;8.90;;;6.13;;
60054;SDS011;45930;53.514;55.904;2023-03-03T00:06:11;9.75;;;5.60;;
60054;SDS011;45930;53.514;55.904;2023-03-03T00:07:13;7.95;;;6.60;;
60054;SDS011;45930;53.514;55.904;2023-03-03T00:08:21;9.35;;;5.88;;
60054;SDS011;45930;53.514;55.904;2023-03-03T00:09:22;10.40;;;6.25;;
60054;SDS011;45930;53.514;55.904;2023-03-03T00:10:23;8.07;;;6.17;;
60054;SDS011;45930;53.514;55.904;2023-03-03T00:11:23;9.83;;;6.20;;
60054;SDS011;45930;53.514;55.904;2023-03-03T00:12:26;7.88;;;5.68;;
60054;SDS011;45930;53.514;55.904;2023-03-03T00:13:29;8.82;;;6.20;;
60054;SDS011;45930;53.514;55.904;2023-03-03T00:14:31;8.65;;;6.78;;
60054;SDS011;45930;53.514;55.904;2023-03-03T00:15:33;8.95;;;5.88;;
60054;SDS011;45930;53.514;55.904;2023-03-03T00:16:38;9.27;;;5.78;;
60054;SDS011;45930;53.514;55.904;2023-03-03T00:17:40;11.13;;;6.60;;
60054;SDS011;45930;53.514;55.904;2023-03-03T00:18:42;9.33;;;6.23;;
60054;SDS011;45930;53.514;55.904;2023-03-03T00:19:44;8.10;;;5.57;;
60054;SDS011;45930;53.514;55.904;2023-03-03T00:20:53;9.80;;;6.40;;
60054;SDS011;45930;53.514;55.904;2023-03-03T00:21:56;8.40;;;6.50;;
60054;SDS011;45930;53.514;55.904;2023-03-03T00:23:12;9.82;;;6.90;;
60054;SDS011;45930;53.514;55.904;2023-03-03T00:26:33;7.97;;;6.30;;
60054;SDS011;45930;53.514;55.904;2023-03-03T00:27:37;11.60;;;6.57;;
60054;SDS011;45930;53.514;55.904;2023-03-03T00:28:44;10.03;;;6.73;;
60054;SDS011;45930;53.514;55.904;2023-03-03T00:30:53;9.25;;;5.95;;
60054;SDS011;45930;53.514;55.904;2023-03-03T00:32:15;9.50;;;5.95;;
60054;SDS011;45930;53.514;55.904;2023-03-03T00:33:38;8.73;;;6.68;;
60054;SDS011;45930;53.514;55.904;2023-03-03T00:34:45;9.57;;;5.95;;
60054;SDS011;45930;53.514;55.904;2023-03-03T00:35:46;11.10;;;7.40;;
60054;SDS011;45930;53.514;55.904;2023-03-03T00:36:47;9.43;;;5.33;;
60054;SDS011;45930;53.514;55.904;2023-03-03T00:37:55;9.80;;;6.13;;
60054;SDS011;45930;53.514;55.904;2023-03-03T00:39:16;12.40;;;6.25;;
60054;SDS011;45930;53.514;55.904;2023-03-03T00:40:19;8.75;;;5.95;;
60054;SDS011;45930;53.514;55.904;2023-03-03T00:41:24;10.15;;;6.55;;
60054;SDS011;45930;53.514;55.904;2023-03-03T00:42:27;10.18;;;6.97;;
60054;SDS011;45930;53.514;55.904;2023-03-03T00:43:31;9.80;;;7.20;;
60054;SDS011;45930;53.514;55.904;2023-03-03T00:44:39;8.00;;;6.03;;
60054;SDS011;45930;53.514;55.904;2023-03-03T00:45:48;10.18;;;6.70;;
60054;SDS011;45930;53.514;55.904;2023-03-03T00:46:50;7.13;;;5.85;;
60054;SDS011;45930;53.514;55.904;2023-03-03T00:47:53;8.95;;;6.80;;
60054;SDS011;45930;53.514;55.904;2023-03-03T00:48:55;8.82;;;7.03;;
60054;SDS011;45930;53.514;55.904;2023-03-03T00:51:12;9.73;;;6.70;;
60054;SDS011;45930;53.514;55.904;2023-03-03T00:52:26;10.55;;;6.63;;
60054;SDS011;45930;53.514;55.904;2023-03-03T00:53:29;8.85;;;7.38;;
60054;SDS011;45930;53.514;55.904;2023-03-03T00:54:30;10.85;;;6.97;;
60054;SDS011;45930;53.514;55.904;2023-03-03T00:55:31;9.87;;;7.00;;
60054;SDS011;45930;53.514;55.904;2023-03-03T00:56:33;11.38;;;7.53;;
60054;SDS011;45930;53.514;55.904;2023-03-03T00:57:34;13.83;;;7.90;;
60054;SDS011;45930;53.514;55.904;2023-03-03T00:58:35;14.57;;;8.90;;
60054;SDS011;45930;53.514;55.904;2023-03-03T00:59:36;12.37;;;8.30;;
60054;SDS011;45930;53.514;55.904;2023-03-03T01:00:37;13.63;;;8.07;;
60054;SDS011;45930;53.514;55.904;2023-03-03T01:01:38;13.23;;;8.25;;
60054;SDS011;45930;53.514;55.904;2023-03-03T01:02:39;12.50;;;7.60;;
60054;SDS011;45930;53.514;55.904;2023-03-03T01:03:40;12.77;;;8.43;;
60054;SDS011;45930;53.514;55.904;2023-03-03T01:04:41;13.13;;;8.57;;
60054;SDS011;45930;53.514;55.904;2023-03-03T01:05:48;12.05;;;7.68;;
60054;SDS011;45930;53.514;55.904;2023-03-03T01:06:49;12.55;;;8.23;;
60054;SDS011;45930;53.514;55.904;2023-03-03T01:07:49;11.10;;;8.30;;
60054;SDS011;45930;53.514;55.904;2023-03-03T01:08:50;12.43;;;8.37;;
60054;SDS011;45930;53.514;55.904;2023-03-03T01:09:51;12.90;;;9.07;;
60054;SDS011;45930;53.514;55.904;2023-03-03T01:10:55;14.63;;;8.30;;
60054;SDS011;45930;53.514;55.904;2023-03-03T01:11:58;9.90;;;7.43;;
60054;SDS011;45930;53.514;55.904;2023-03-03T01:12:59;10.75;;;7.20;;
60054;SDS011;45930;53.514;55.904;2023-03-03T01:14:00;12.02;;;7.80;;
60054;SDS011;45930;53.514;55.904;2023-03-03T01:15:01;9.97;;;7.33;;
60054;SDS011;45930;53.514;55.904;2023-03-03T01:16:02;10.55;;;8.15;;
60054;SDS011;45930;53.514;55.904;2023-03-03T01:17:03;11.93;;;7.70;;
60054;SDS011;45930;53.514;55.904;2023-03-03T01:18:05;10.63;;;7.07;;
60054;SDS011;45930;53.514;55.904;2023-03-03T01:19:06;9.95;;;7.50;;
60054;SDS011;45930;53.514;55.904;2023-03-03T01:20:08;11.93;;;7.68;;
60054;SDS011;45930;53.514;55.904;2023-03-03T01:21:11;10.80;;;7.32;;
60054;SDS011;45930;53.514;55.904;2023-03-03T01:22:12;9.70;;;7.18;;
60054;SDS011;45930;53.514;55.904;2023-03-03T01:23:13;13.07;;;7.57;;
60054;SDS011;45930;53.514;55.904;2023-03-03T01:24:14;11.07;;;7.43;;
60054;SDS011;45930;53.514;55.904;2023-03-03T01:25:15;9.47;;;7.27;;
60054;SDS011;45930;53.514;55.904;2023-03-03T01:26:16;13.20;;;8.00;;
60054;SDS011;45930;53.514;55.904;2023-03-03T01:27:16;12.70;;;7.80;;
60054;SDS011;45930;53.514;55.904;2023-03-03T01:28:17;15.43;;;8.33;;
60054;SDS011;45930;53.514;55.904;2023-03-03T01:29:19;11.30;;;7.60;;
60054;SDS011;45930;53.514;55.904;2023-03-03T01:30:19;12.60;;;7.30;;
60054;SDS011;45930;53.514;55.904;2023-03-03T01:31:20;12.67;;;7.83;;
60054;SDS011;45930;53.514;55.904;2023-03-03T01:32:22;11.43;;;7.50;;
60054;SDS011;45930;53.514;55.904;2023-03-03T01:33:23;11.60;;;7.85;;
60054;SDS011;45930;53.514;55.904;2023-03-03T01:34:24;11.13;;;7.60;;
60054;SDS011;45930;53.514;55.904;2023-03-03T01:35:25;12.33;;;7.17;;
60054;SDS011;45930;53.514;55.904;2023-03-03T01:36:26;14.20;;;7.93;;
60054;SDS011;45930;53.514;55.904;2023-03-03T01:37:28;12.38;;;8.38;;
60054;SDS011;45930;53.514;55.904;2023-03-03T01:38:29;13.77;;;8.03;;
60054;SDS011;45930;53.514;55.904;2023-03-03T01:39:30;14.98;;;9.30;;
60054;SDS011;45930;53.514;55.904;2023-03-03T01:40:31;15.20;;;8.70;;
60054;SDS011;45930;53.514;55.904;2023-03-03T01:41:32;14.13;;;9.82;;
60054;SDS011;45930;53.514;55.904;2023-03-03T01:42:32;15.33;;;9.43;;
60054;SDS011;45930;53.514;55.904;2023-03-03T01:43:33;12.70;;;9.07;;
60054;SDS011;45930;53.514;55.904;2023-03-03T01:44:34;13.37;;;8.80;;
60054;SDS011;45930;53.514;55.904;2023-03-03T01:46:52;16.75;;;8.90;;
60054;SDS011;45930;53.514;55.904;2023-03-03T01:48:08;12.48;;;8.43;;
60054;SDS011;45930;53.514;55.904;2023-03-03T01:49:15;13.13;;;8.27;;
60054;SDS011;45930;53.514;55.904;2023-03-03T01:51:50;11.10;;;8.00;;
60054;SDS011;45930;53.514;55.904;2023-03-03T01:52:54;12.43;;;8.10;;
60054;SDS011;45930;53.514;55.904;2023-03-03T01:54:03;12.65;;;7.72;;
60054;SDS011;45930;53.514;55.904;2023-03-03T01:55:19;10.63;;;7.10;;
60054;SDS011;45930;53.514;55.904;2023-03-03T01:56:23;10.40;;;7.43;;
60054;SDS011;45930;53.514;55.904;2023-03-03T01:57:28;10.63;;;6.93;;
60054;SDS011;45930;53.514;55.904;2023-03-03T01:58:35;10.43;;;7.20;;
60054;SDS011;45930;53.514;55.904;2023-03-03T01:59:43;11.07;;;7.40;;
60054;SDS011;45930;53.514;55.904;2023-03-03T02:00:48;15.02;;;7.28;;
60054;SDS011;45930;53.514;55.904;2023-03-03T02:01:52;13.05;;;8.05;;
60054;SDS011;45930;53.514;55.904;2023-03-03T02:02:53;12.10;;;6.97;;
60054;SDS011;45930;53.514;55.904;2023-03-03T02:03:54;11.35;;;7.07;;
60054;SDS011;45930;53.514;55.904;2023-03-03T02:04:55;12.30;;;7.20;;
60054;SDS011;45930;53.514;55.904;2023-03-03T02:05:57;13.00;;;8.60;;
60054;SDS011;45930;53.514;55.904;2023-03-03T02:07:04;12.10;;;7.53;;
60054;SDS011;45930;53.514;55.904;2023-03-03T02:08:10;10.93;;;7.55;;
60054;SDS011;45930;53.514;55.904;2023-03-03T02:09:21;15.25;;;8.27;;
60054;SDS011;45930;53.514;55.904;2023-03-03T02:10:23;12.60;;;7.90;;
60054;SDS011;45930;53.514;55.904;2023-03-03T02:11:24;11.10;;;7.27;;
60054;SDS011;45930;53.514;55.904;2023-03-03T02:12:45;12.05;;;7.53;;
60054;SDS011;45930;53.514;55.904;2023-03-03T02:13:49;13.52;;;7.20;;
60054;SDS011;45930;53.514;55.904;2023-03-03T02:14:50;9.20;;;6.60;;
60054;SDS011;45930;53.514;55.904;2023-03-03T02:15:51;14.83;;;7.77;;
60054;SDS011;45930;53.514;55.904;2023-03-03T02:16:51;11.47;;;7.27;;
60054;SDS011;45930;53.514;55.904;2023-03-03T02:17:53;12.80;;;7.60;;
60054;SDS011;45930;53.514;55.904;2023-03-03T02:18:56;12.00;;;7.63;;
60054;SDS011;45930;53.514;55.904;2023-03-03T02:20:43;13.40;;;7.70;;
60054;SDS011;45930;53.514;55.904;2023-03-03T02:21:27;12.23;;;8.27;;
60054;SDS011;45930;53.514;55.904;2023-03-03T02:22:31;10.40;;;7.05;;
60054;SDS011;45930;53.514;55.904;2023-03-03T02:24:47;11.85;;;7.25;;
60054;SDS011;45930;53.514;55.904;2023-03-03T02:26:56;11.95;;;8.07;;
60054;SDS011;45930;53.514;55.904;2023-03-03T02:27:57;12.10;;;9.10;;
60054;SDS011;45930;53.514;55.904;2023-03-03T02:28:59;12.48;;;8.02;;
60054;SDS011;45930;53.514;55.904;2023-03-03T02:30:10;14.43;;;8.63;;
60054;SDS011;45930;53.514;55.904;2023-03-03T02:31:16;11.45;;;7.85;;
60054;SDS011;45930;53.514;55.904;2023-03-03T02:32:19;13.48;;;8.50;;
60054;SDS011;45930;53.514;55.904;2023-03-03T02:33:20;14.17;;;9.20;;
60054;SDS011;45930;53.514;55.904;2023-03-03T02:34:21;12.05;;;7.90;;
60054;SDS011;45930;53.514;55.904;2023-03-03T02:35:29;12.03;;;8.10;;
60054;SDS011;45930;53.514;55.904;2023-03-03T02:36:34;12.43;;;7.85;;
60054;SDS011;45930;53.514;55.904;2023-03-03T02:37:36;11.73;;;7.88;;
60054;SDS011;45930;53.514;55.904;2023-03-03T02:38:42;12.60;;;7.93;;
60054;SDS011;45930;53.514;55.904;2023-03-03T02:39:48;11.32;;;7.55;;
60054;SDS011;45930;53.514;55.904;2023-03-03T02:41:05;10.53;;;7.93;;
60054;SDS011;45930;53.514;55.904;2023-03-03T02:42:26;11.85;;;7.40;;
60054;SDS011;45930;53.514;55.904;2023-03-03T02:43:32;12.73;;;7.10;;
60054;SDS011;45930;53.514;55.904;2023-03-03T02:44:41;10.30;;;7.25;;
60054;SDS011;45930;53.514;55.904;2023-03-03T02:45:42;9.57;;;7.33;;
60054;SDS011;45930;53.514;55.904;2023-03-03T02:46:45;14.13;;;7.97;;
60054;SDS011;45930;53.514;55.904;2023-03-03T02:47:48;14.25;;;9.07;;
60054;SDS011;45930;53.514;55.904;2023-03-03T02:48:50;11.95;;;8.13;;
60054;SDS011;45930;53.514;55.904;2023-03-03T02:49:51;15.20;;;8.50;;
60054;SDS011;45930;53.514;55.904;2023-03-03T02:50:52;14.68;;;7.82;;
60054;SDS011;45930;53.514;55.904;2023-03-03T02:51:53;11.00;;;7.17;;
60054;SDS011;45930;53.514;55.904;2023-03-03T02:52:54;12.55;;;7.55;;
60054;SDS011;45930;53.514;55.904;2023-03-03T02:53:55;11.77;;;8.10;;
60054;SDS011;45930;53.514;55.904;2023-03-03T02:54:56;14.13;;;9.25;;
60054;SDS011;45930;53.514;55.904;2023-03-03T02:55:57;12.93;;;8.50;;
60054;SDS011;45930;53.514;55.904;2023-03-03T02:56:58;13.77;;;7.90;;
60054;SDS011;45930;53.514;55.904;2023-03-03T02:58:00;12.02;;;7.47;;
60054;SDS011;45930;53.514;55.904;2023-03-03T02:59:01;11.33;;;8.43;;
60054;SDS011;45930;53.514;55.904;2023-03-03T03:00:03;12.50;;;8.40;;
60054;SDS011;45930;53.514;55.904;2023-03-03T03:01:04;11.93;;;8.23;;
60054;SDS011;45930;53.514;55.904;2023-03-03T03:02:05;14.80;;;8.23;;
60054;SDS011;45930;53.514;55.904;2023-03-03T03:03:08;11.77;;;7.85;;
60054;SDS011;45930;53.514;55.904;2023-03-03T03:04:10;14.73;;;8.77;;
60054;SDS011;45930;53.514;55.904;2023-03-03T03:05:13;13.52;;;8.65;;
60054;SDS011;45930;53.514;55.904;2023-03-03T03:06:14;11.63;;;8.60;;
60054;SDS011;45930;53.514;55.904;2023-03-03T03:07:15;14.10;;;8.40;;
60054;SDS011;45930;53.514;55.904;2023-03-03T03:08:16;13.73;;;8.20;;
60054;SDS011;45930;53.514;55.904;2023-03-03T03:09:17;13.90;;;8.23;;
60054;SDS011;45930;53.514;55.904;2023-03-03T03:10:18;12.68;;;8.77;;
60054;SDS011;45930;53.514;55.904;2023-03-03T03:11:19;15.17;;;9.20;;
60054;SDS011;45930;53.514;55.904;2023-03-03T03:12:20;16.33;;;9.10;;
60054;SDS011;45930;53.514;55.904;2023-03-03T03:13:21;14.13;;;8.47;;
60054;SDS011;45930;53.514;55.904;2023-03-03T03:14:23;16.05;;;8.82;;
60054;SDS011;45930;53.514;55.904;2023-03-03T03:15:24;15.73;;;9.47;;
60054;SDS011;45930;53.514;55.904;2023-03-03T03:16:24;12.77;;;8.60;;
60054;SDS011;45930;53.514;55.904;2023-03-03T03:17:25;13.53;;;8.53;;
60054;SDS011;45930;53.514;55.904;2023-03-03T03:18:26;12.60;;;7.53;;
60054;SDS011;45930;53.514;55.904;2023-03-03T03:19:28;11.95;;;7.47;;
60054;SDS011;45930;53.514;55.904;2023-03-03T03:20:28;15.17;;;8.50;;
60054;SDS011;45930;53.514;55.904;2023-03-03T03:21:30;14.37;;;9.43;;
60054;SDS011;45930;53.514;55.904;2023-03-03T03:22:31;13.70;;;9.02;;
60054;SDS011;45930;53.514;55.904;2023-03-03T03:23:32;12.60;;;8.47;;
60054;SDS011;45930;53.514;55.904;2023-03-03T03:24:34;12.95;;;8.35;;
60054;SDS011;45930;53.514;55.904;2023-03-03T03:25:35;11.80;;;8.57;;
60054;SDS011;45930;53.514;55.904;2023-03-03T03:26:44;14.43;;;9.00;;
60054;SDS011;45930;53.514;55.904;2023-03-03T03:27:45;13.00;;;8.27;;
60054;SDS011;45930;53.514;55.904;2023-03-03T03:28:47;12.05;;;7.43;;
60054;SDS011;45930;53.514;55.904;2023-03-03T03:29:48;11.23;;;7.03;;
60054;SDS011;45930;53.514;55.904;2023-03-03T03:30:49;12.50;;;7.70;;
60054;SDS011;45930;53.514;55.904;2023-03-03T03:31:50;11.13;;;8.38;;
60054;SDS011;45930;53.514;55.904;2023-03-03T03:32:51;13.53;;;8.57;;
60054;SDS011;45930;53.514;55.904;2023-03-03T03:33:52;13.17;;;7.63;;
60054;SDS011;45930;53.514;55.904;2023-03-03T03:34:53;10.35;;;7.88;;
60054;SDS011;45930;53.514;55.904;2023-03-03T03:35:54;11.47;;;8.17;;
60054;SDS011;45930;53.514;55.904;2023-03-03T03:36:56;10.93;;;7.68;;
60054;SDS011;45930;53.514;55.904;2023-03-03T03:37:57;10.57;;;8.13;;
60054;SDS011;45930;53.514;55.904;2023-03-03T03:38:57;10.23;;;7.63;;
60054;SDS011;45930;53.514;55.904;2023-03-03T03:39:58;13.37;;;9.00;;
60054;SDS011;45930;53.514;55.904;2023-03-03T03:40:59;12.10;;;8.10;;
60054;SDS011;45930;53.514;55.904;2023-03-03T03:42:00;12.50;;;7.63;;
60054;SDS011;45930;53.514;55.904;2023-03-03T03:43:01;15.23;;;9.13;;
60054;SDS011;45930;53.514;55.904;2023-03-03T03:44:01;13.90;;;8.10;;
60054;SDS011;45930;53.514;55.904;2023-03-03T03:45:03;13.17;;;8.03;;
60054;SDS011;45930;53.514;55.904;2023-03-03T03:46:04;12.95;;;8.30;;
60054;SDS011;45930;53.514;55.904;2023-03-03T03:47:05;13.30;;;8.40;;
60054;SDS011;45930;53.514;55.904;2023-03-03T03:48:05;15.43;;;8.83;;
60054;SDS011;45930;53.514;55.904;2023-03-03T03:49:06;15.97;;;8.50;;
60054;SDS011;45930;53.514;55.904;2023-03-03T03:50:07;14.43;;;9.03;;
60054;SDS011;45930;53.514;55.904;2023-03-03T03:51:10;16.58;;;9.68;;
60054;SDS011;45930;53.514;55.904;2023-03-03T03:52:11;17.75;;;9.05;;
60054;SDS011;45930;53.514;55.904;2023-03-03T03:53:12;16.07;;;10.07;;
60054;SDS011;45930;53.514;55.904;2023-03-03T03:54:13;14.43;;;8.90;;
60054;SDS011;45930;53.514;55.904;2023-03-03T03:55:14;13.57;;;8.40;;
60054;SDS011;45930;53.514;55.904;2023-03-03T03:56:18;12.55;;;8.88;;
60054;SDS011;45930;53.514;55.904;2023-03-03T03:57:19;12.70;;;9.20;;
60054;SDS011;45930;53.514;55.904;2023-03-03T03:58:20;15.80;;;9.07;;
60054;SDS011;45930;53.514;55.904;2023-03-03T03:59:21;13.55;;;8.32;;
60054;SDS011;45930;53.514;55.904;2023-03-03T04:00:22;12.93;;;8.07;;
60054;SDS011;45930;53.514;55.904;2023-03-03T04:01:23;12.77;;;7.63;;
60054;SDS011;45930;53.514;55.904;2023-03-03T04:02:25;12.50;;;7.78;;
60054;SDS011;45930;53.514;55.904;2023-03-03T04:03:26;14.27;;;8.67;;
60054;SDS011;45930;53.514;55.904;2023-03-03T04:04:27;12.43;;;8.73;;
60054;SDS011;45930;53.514;55.904;2023-03-03T04:05:28;15.60;;;7.80;;
60054;SDS011;45930;53.514;55.904;2023-03-03T04:06:28;12.43;;;8.17;;
60054;SDS011;45930;53.514;55.904;2023-03-03T04:07:29;13.82;;;7.93;;
60054;SDS011;45930;53.514;55.904;2023-03-03T04:08:30;13.03;;;7.83;;
60054;SDS011;45930;53.514;55.904;2023-03-03T04:09:31;12.70;;;8.23;;
60054;SDS011;45930;53.514;55.904;2023-03-03T04:10:32;12.13;;;8.27;;
60054;SDS011;45930;53.514;55.904;2023-03-03T04:11:34;12.55;;;8.10;;
60054;SDS011;45930;53.514;55.904;2023-03-03T04:12:34;12.77;;;8.20;;
60054;SDS011;45930;53.514;55.904;2023-03-03T04:13:38;14.73;;;8.52;;
60054;SDS011;45930;53.514;55.904;2023-03-03T04:14:39;11.97;;;7.50;;
60054;SDS011;45930;53.514;55.904;2023-03-03T04:15:40;13.77;;;8.97;;
60054;SDS011;45930;53.514;55.904;2023-03-03T04:16:41;12.63;;;8.37;;
60054;SDS011;45930;53.514;55.904;2023-03-03T04:17:45;14.20;;;8.03;;
60054;SDS011;45930;53.514;55.904;2023-03-03T04:18:46;12.70;;;8.48;;
60054;SDS011;45930;53.514;55.904;2023-03-03T04:19:47;11.97;;;8.30;;
60054;SDS011;45930;53.514;55.904;2023-03-03T04:20:48;14.13;;;8.00;;
60054;SDS011;45930;53.514;55.904;2023-03-03T04:21:50;12.27;;;8.27;;
60054;SDS011;45930;53.514;55.904;2023-03-03T04:22:51;12.15;;;8.32;;
60054;SDS011;45930;53.514;55.904;2023-03-03T04:23:52;12.00;;;8.37;;
60054;SDS011;45930;53.514;55.904;2023-03-03T04:24:53;12.57;;;8.57;;
60054;SDS011;45930;53.514;55.904;2023-03-03T04:25:53;13.13;;;8.43;;
60054;SDS011;45930;53.514;55.904;2023-03-03T04:26:54;13.33;;;8.50;;
60054;SDS011;45930;53.514;55.904;2023-03-03T04:27:55;13.33;;;9.10;;
60054;SDS011;45930;53.514;55.904;2023-03-03T04:28:56;14.90;;;8.40;;
60054;SDS011;45930;53.514;55.904;2023-03-03T04:29:58;14.73;;;9.60;;
60054;SDS011;45930;53.514;55.904;2023-03-03T04:30:59;13.13;;;8.77;;
60054;SDS011;45930;53.514;55.904;2023-03-03T04:32:00;15.27;;;8.57;;
60054;SDS011;45930;53.514;55.904;2023-03-03T04:33:03;12.23;;;8.77;;
60054;SDS011;45930;53.514;55.904;2023-03-03T04:34:04;11.93;;;8.38;;
60054;SDS011;45930;53.514;55.904;2023-03-03T04:35:05;14.17;;;8.50;;
60054;SDS011;45930;53.514;55.904;2023-03-03T04:36:07;16.08;;;8.57;;
60054;SDS011;45930;53.514;55.904;2023-03-03T04:37:08;11.63;;;8.53;;
60054;SDS011;45930;53.514;55.904;2023-03-03T04:38:09;14.83;;;8.83;;
60054;SDS011;45930;53.514;55.904;2023-03-03T04:39:10;13.77;;;8.50;;
60054;SDS011;45930;53.514;55.904;2023-03-03T04:40:10;12.70;;;8.00;;
60054;SDS011;45930;53.514;55.904;2023-03-03T04:41:11;13.25;;;8.70;;
60054;SDS011;45930;53.514;55.904;2023-03-03T04:42:12;13.67;;;9.03;;
60054;SDS011;45930;53.514;55.904;2023-03-03T04:43:13;12.80;;;8.47;;
60054;SDS011;45930;53.514;55.904;2023-03-03T04:44:14;12.70;;;8.63;;
60054;SDS011;45930;53.514;55.904;2023-03-03T04:45:15;12.93;;;8.40;;
60054;SDS011;45930;53.514;55.904;2023-03-03T04:46:16;13.18;;;8.75;;
60054;SDS011;45930;53.514;55.904;2023-03-03T04:47:17;14.47;;;9.03;;
60054;SDS011;45930;53.514;55.904;2023-03-03T04:48:18;11.47;;;8.67;;
60054;SDS011;45930;53.514;55.904;2023-03-03T04:49:18;13.77;;;8.43;;
60054;SDS011;45930;53.514;55.904;2023-03-03T04:50:19;13.83;;;8.67;;
60054;SDS011;45930;53.514;55.904;2023-03-03T04:51:20;13.27;;;7.80;;
60054;SDS011;45930;53.514;55.904;2023-03-03T04:52:21;12.90;;;8.43;;
60054;SDS011;45930;53.514;55.904;2023-03-03T04:53:22;13.73;;;8.33;;
60054;SDS011;45930;53.514;55.904;2023-03-03T04:54:23;12.88;;;8.60;;
60054;SDS011;45930;53.514;55.904;2023-03-03T04:55:23;11.83;;;8.47;;
60054;SDS011;45930;53.514;55.904;2023-03-03T04:56:24;14.30;;;8.57;;
60054;SDS011;45930;53.514;55.904;2023-03-03T04:57:26;11.18;;;6.72;;
60054;SDS011;45930;53.514;55.904;2023-03-03T04:58:27;11.20;;;7.20;;
60054;SDS011;45930;53.514;55.904;2023-03-03T04:59:27;14.27;;;7.93;;
60054;SDS011;45930;53.514;55.904;2023-03-03T05:00:28;12.37;;;6.77;;
60054;SDS011;45930;53.514;55.904;2023-03-03T05:01:29;12.80;;;7.80;;
60054;SDS011;45930;53.514;55.904;2023-03-03T05:02:30;11.23;;;7.37;;
60054;SDS011;45930;53.514;55.904;2023-03-03T05:03:30;13.00;;;7.20;;
60054;SDS011;45930;53.514;55.904;2023-03-03T05:04:31;11.30;;;7.40;;
60054;SDS011;45930;53.514;55.904;2023-03-03T05:05:32;10.95;;;6.93;;
60054;SDS011;45930;53.514;55.904;2023-03-03T05:06:33;13.03;;;8.23;;
60054;SDS011;45930;53.514;55.904;2023-03-03T05:07:34;11.90;;;7.67;;
60054;SDS011;45930;53.514;55.904;2023-03-03T05:08:35;12.63;;;7.77;;
60054;SDS011;45930;53.514;55.904;2023-03-03T05:09:36;14.13;;;7.47;;
60054;SDS011;45930;53.514;55.904;2023-03-03T05:10:37;11.93;;;8.23;;
60054;SDS011;45930;53.514;55.904;2023-03-03T05:11:39;13.15;;;8.07;;
60054;SDS011;45930;53.514;55.904;2023-03-03T05:12:39;11.57;;;8.40;;
60054;SDS011;45930;53.514;55.904;2023-03-03T05:13:40;12.97;;;7.70;;
60054;SDS011;45930;53.514;55.904;2023-03-03T05:14:42;13.07;;;8.85;;
60054;SDS011;45930;53.514;55.904;2023-03-03T05:15:47;12.83;;;8.17;;
60054;SDS011;45930;53.514;55.904;2023-03-03T05:16:52;17.35;;;8.82;;
60054;SDS011;45930;53.514;55.904;2023-03-03T05:17:53;12.30;;;8.23;;
60054;SDS011;45930;53.514;55.904;2023-03-03T05:18:55;15.43;;;8.98;;
60054;SDS011;45930;53.514;55.904;2023-03-03T05:19:56;12.60;;;8.80;;
60054;SDS011;45930;53.514;55.904;2023-03-03T05:20:57;13.23;;;8.03;;
60054;SDS011;45930;53.514;55.904;2023-03-03T05:21:58;13.13;;;9.13;;
60054;SDS011;45930;53.514;55.904;2023-03-03T05:22:59;11.45;;;7.63;;
60054;SDS011;45930;53.514;55.904;2023-03-03T05:24:00;12.85;;;8.13;;
60054;SDS011;45930;53.514;55.904;2023-03-03T05:25:01;13.17;;;8.33;;
60054;SDS011;45930;53.514;55.904;2023-03-03T05:26:02;11.43;;;7.77;;
60054;SDS011;45930;53.514;55.904;2023-03-03T05:27:03;15.27;;;8.43;;
60054;SDS011;45930;53.514;55.904;2023-03-03T05:28:04;12.57;;;8.67;;
60054;SDS011;45930;53.514;55.904;2023-03-03T05:29:05;14.40;;;8.63;;
60054;SDS011;45930;53.514;55.904;2023-03-03T05:30:07;12.65;;;8.23;;
60054;SDS011;45930;53.514;55.904;2023-03-03T05:31:08;13.10;;;8.77;;
60054;SDS011;45930;53.514;55.904;2023-03-03T05:32:09;14.77;;;8.20;;
60054;SDS011;45930;53.514;55.904;2023-03-03T05:33:13;12.07;;;7.73;;
60054;SDS011;45930;53.514;55.904;2023-03-03T05:34:15;12.82;;;7.40;;
60054;SDS011;45930;53.514;55.904;2023-03-03T05:35:16;12.90;;;7.23;;
60054;SDS011;45930;53.514;55.904;2023-03-03T05:36:17;12.23;;;7.60;;
60054;SDS011;45930;53.514;55.904;2023-03-03T05:37:18;11.37;;;7.90;;
60054;SDS011;45930;53.514;55.904;2023-03-03T05:38:18;15.03;;;9.03;;
60054;SDS011;45930;53.514;55.904;2023-03-03T05:39:19;9.10;;;7.47;;
60054;SDS011;45930;53.514;55.904;2023-03-03T05:40:20;15.40;;;7.87;;
60054;SDS011;45930;53.514;55.904;2023-03-03T05:41:21;14.90;;;9.80;;
60054;SDS011;45930;53.514;55.904;2023-03-03T05:42:21;10.40;;;7.40;;
60054;SDS011;45930;53.514;55.904;2023-03-03T05:43:22;10.57;;;7.10;;
60054;SDS011;45930;53.514;55.904;2023-03-03T05:44:23;12.00;;;7.87;;
60054;SDS011;45930;53.514;55.904;2023-03-03T05:45:24;8.57;;;5.80;;
60054;SDS011;45930;53.514;55.904;2023-03-03T05:46:25;10.77;;;6.93;;
60054;SDS011;45930;53.514;55.904;2023-03-03T05:47:25;9.33;;;6.63;;
60054;SDS011;45930;53.514;55.904;2023-03-03T05:48:26;8.90;;;6.70;;
60054;SDS011;45930;53.514;55.904;2023-03-03T05:49:27;10.45;;;7.03;;
60054;SDS011;45930;53.514;55.904;2023-03-03T05:50:28;10.83;;;7.70;;
60054;SDS011;45930;53.514;55.904;2023-03-03T05:51:29;10.00;;;7.03;;
60054;SDS011;45930;53.514;55.904;2023-03-03T05:52:30;10.40;;;7.40;;
60054;SDS011;45930;53.514;55.904;2023-03-03T05:53:31;11.00;;;6.90;;
60054;SDS011;45930;53.514;55.904;2023-03-03T05:54:31;12.30;;;7.47;;
60054;SDS011;45930;53.514;55.904;2023-03-03T05:55:32;9.63;;;6.40;;
60054;SDS011;45930;53.514;55.904;2023-03-03T05:56:33;10.40;;;7.23;;
60054;SDS011;45930;53.514;55.904;2023-03-03T05:57:34;11.10;;;6.60;;
60054;SDS011;45930;53.514;55.904;2023-03-03T05:58:35;12.17;;;7.63;;
60054;SDS011;45930;53.514;55.904;2023-03-03T05:59:36;10.80;;;7.57;;
60054;SDS011;45930;53.514;55.904;2023-03-03T06:00:37;9.67;;;6.63;;
60054;SDS011;45930;53.514;55.904;2023-03-03T06:01:37;12.30;;;7.60;;
60054;SDS011;45930;53.514;55.904;2023-03-03T06:02:39;10.63;;;7.00;;
60054;SDS011;45930;53.514;55.904;2023-03-03T06:03:40;11.13;;;6.80;;
60054;SDS011;45930;53.514;55.904;2023-03-03T06:04:41;13.23;;;7.53;;
60054;SDS011;45930;53.514;55.904;2023-03-03T06:05:41;15.47;;;7.70;;
60054;SDS011;45930;53.514;55.904;2023-03-03T06:06:42;12.00;;;7.17;;
60054;SDS011;45930;53.514;55.904;2023-03-03T06:07:43;10.83;;;6.67;;
60054;SDS011;45930;53.514;55.904;2023-03-03T06:08:44;10.03;;;6.80;;
60054;SDS011;45930;53.514;55.904;2023-03-03T06:09:45;12.20;;;6.73;;
60054;SDS011;45930;53.514;55.904;2023-03-03T06:10:46;11.60;;;7.43;;
60054;SDS011;45930;53.514;55.904;2023-03-03T06:11:46;10.20;;;7.10;;
60054;SDS011;45930;53.514;55.904;2023-03-03T06:12:47;11.80;;;6.80;;
60054;SDS011;45930;53.514;55.904;2023-03-03T06:13:48;9.83;;;7.07;;
60054;SDS011;45930;53.514;55.904;2023-03-03T06:14:49;10.97;;;7.10;;
60054;SDS011;45930;53.514;55.904;2023-03-03T06:15:49;10.67;;;7.43;;